航空気象通報

ウインドサーファーのための航空気象通報による風予報です。

12/31-1/2の航空気象通報

2018年12月31日 20時08分36秒 | お天気

羽田空港
TAF RJTT 310505Z 3106/0112 36010KT 9999 FEW030 BKN060 
  BECMG 0103/0106 18012KT 
  BECMG 0109/0112 30008KT
日本時間31日21時-1日12時:360度から10ノットの風
12-15時:風が変化
15-18時:180度から12ノットの風
18-21時:風が変化
21時-2日03時:300度から8ノットの風

静岡空港
TAF RJNS 310506Z 3106/0112 32006KT 9999 FEW020 BKN040 
  BECMG 0100/0103 26012KT
日本時間31日21時-1日09時:320度から6ノットの風
09-12時:風が変化
12時-2日03時:260度から12ノットの風

福岡空港
TAF RJFF 311106Z 3112/0118 15008KT 9999 FEW020 SCT035 
  BECMG 3120/3122 31009KT
日本時間31日21時-1日05時:150度から8ノットの風
05-07時:風が変化
07時-2日03時:310度から9ノットの風

那覇空港
TAF ROAH 311105Z 3112/0118 04010KT 9999 FEW030 SCT045
日本時間31日21時-2日03時:040度から10ノットの風

石垣空港
TAF ROIG 311108Z 3112/0118 04020KT 9999 FEW015 BKN025
日本時間31日21時-2日03時:040度から20ノットの風

マウイのカフルイ空港
PHOG 311120Z 3112/0112 06009KT P6SM FEW025 SCT045 
  FM312100 06018G25KT P6SM FEW025 SCT045 
  FM010500 07012KT P6SM FEW030 SCT050 AMD LTD TO VIS AND WIND TIL 311600
ハワイ時間31日02-11時:060度から9ノットの風
11-19時:060度から18ノット、突風25ノット
19時-1日02時:070度から12ノットの風

サイパン空港
PGSN 311122Z 3112/0112 04015G25KT P6SM VCSH SCT020 BKN050 
  TEMPO 3112/3116 -SHRA BKN020 OVC050
マリアナ時間31日22時-1日22時:040度から15ノット、突風25ノット



ジャンル:
ウェブログ
コメント   この記事についてブログを書く
« 12/29-12/31の航空気象通報 | トップ | 1/2-1/4の航空気象通報 »
最近の画像もっと見る

コメントを投稿

ブログ作成者から承認されるまでコメントは反映されません。

お天気」カテゴリの最新記事